createdAt,value
2018-07-22T00:01:04.013Z,48.80
2018-07-22T00:03:32.778Z,48.80
2018-07-22T00:06:01.623Z,48.80
2018-07-22T00:08:30.419Z,49.00
2018-07-22T00:10:59.162Z,48.90
2018-07-22T00:13:27.965Z,49.00
2018-07-22T00:15:56.736Z,49.00
2018-07-22T00:18:25.601Z,49.10
2018-07-22T00:20:54.321Z,48.90
2018-07-22T00:23:23.443Z,48.90
2018-07-22T00:25:52.462Z,49.00
2018-07-22T00:28:21.367Z,49.20
2018-07-22T00:33:18.898Z,49.20
2018-07-22T00:35:47.821Z,49.20
2018-07-22T00:38:16.733Z,49.20
2018-07-22T00:40:45.765Z,49.30
2018-07-22T00:43:14.622Z,49.40
2018-07-22T00:48:12.117Z,49.80
2018-07-22T00:50:40.927Z,49.90
2018-07-22T00:53:09.778Z,49.80
2018-07-22T00:55:38.574Z,50.00
2018-07-22T00:58:07.378Z,50.00
2018-07-22T01:00:36.266Z,50.00
2018-07-22T01:03:05.124Z,50.10
2018-07-22T01:05:33.991Z,50.20
2018-07-22T01:08:02.832Z,50.40
2018-07-22T01:10:31.575Z,50.50
2018-07-22T01:13:00.382Z,50.60
2018-07-22T01:15:29.280Z,50.70
2018-07-22T01:17:58.211Z,51.00
2018-07-22T01:20:26.978Z,51.00
2018-07-22T01:22:55.788Z,51.00
2018-07-22T01:25:24.564Z,50.90
2018-07-22T01:27:53.526Z,51.10
2018-07-22T01:32:51.190Z,51.50
2018-07-22T01:35:20.022Z,51.50
2018-07-22T01:37:48.923Z,51.60
2018-07-22T01:40:17.774Z,51.60
2018-07-22T01:42:46.710Z,51.50
2018-07-22T01:45:15.579Z,51.40
2018-07-22T01:47:44.354Z,51.50
2018-07-22T01:52:42.735Z,52.00
2018-07-22T01:55:11.663Z,52.00
2018-07-22T01:57:40.481Z,52.10
2018-07-22T02:00:09.396Z,52.10
2018-07-22T02:02:38.214Z,52.30
2018-07-22T02:05:07.095Z,52.60
2018-07-22T02:07:36.080Z,52.70
2018-07-22T02:10:04.916Z,53.50
2018-07-22T02:12:33.777Z,53.20
2018-07-22T02:15:02.664Z,53.70
2018-07-22T02:17:31.450Z,54.40
2018-07-22T02:22:28.962Z,55.30
2018-07-22T02:24:57.812Z,55.90
2018-07-22T02:27:26.589Z,56.10
2018-07-22T02:29:55.360Z,56.00
2018-07-22T02:32:24.168Z,56.30
2018-07-22T02:34:52.934Z,56.70
2018-07-22T02:37:21.744Z,57.10
2018-07-22T02:39:50.769Z,57.00
2018-07-22T02:44:47.973Z,57.60
2018-07-22T02:47:16.903Z,57.60
2018-07-22T02:49:45.690Z,58.00
2018-07-22T02:52:14.514Z,58.30
2018-07-22T02:57:11.889Z,58.30
2018-07-22T03:07:06.352Z,58.80
2018-07-22T03:09:35.179Z,58.80
2018-07-22T03:12:03.968Z,58.70
2018-07-22T03:14:32.928Z,58.70
2018-07-22T03:17:01.781Z,58.60
2018-07-22T03:19:30.595Z,58.80
2018-07-22T03:21:59.489Z,59.50
2018-07-22T03:24:28.291Z,58.70
2018-07-22T03:26:57.111Z,58.50
2018-07-22T03:29:26.205Z,58.60
2018-07-22T03:31:55.082Z,58.70
2018-07-22T03:34:23.907Z,58.80
2018-07-22T03:39:21.155Z,58.90
2018-07-22T03:41:50.115Z,59.10
2018-07-22T03:44:18.922Z,59.30
2018-07-22T03:46:47.719Z,59.50
2018-07-22T03:49:16.712Z,59.60
2018-07-22T03:51:45.500Z,59.80
2018-07-22T03:54:14.299Z,59.80
2018-07-22T03:56:43.489Z,60.00
2018-07-22T03:59:12.255Z,60.80
2018-07-22T04:01:41.159Z,61.10
2018-07-22T04:04:10.051Z,61.20
2018-07-22T04:06:38.849Z,61.30
2018-07-22T04:09:08.959Z,61.60
2018-07-22T04:11:38.118Z,61.80
2018-07-22T04:14:07.024Z,62.50
2018-07-22T04:16:35.896Z,62.80
2018-07-22T04:19:04.733Z,62.90
2018-07-22T04:21:33.618Z,63.20
2018-07-22T04:24:02.472Z,63.70
2018-07-22T04:26:31.290Z,63.70
2018-07-22T04:29:00.112Z,63.80
2018-07-22T04:31:28.893Z,63.70
2018-07-22T04:33:57.744Z,63.60
2018-07-22T04:36:26.573Z,63.50
2018-07-22T04:38:55.434Z,63.20
2018-07-22T04:41:24.482Z,63.50
2018-07-22T04:43:53.375Z,63.10
2018-07-22T04:48:50.909Z,62.30
2018-07-22T04:51:19.766Z,61.60
2018-07-22T04:53:48.684Z,61.10
2018-07-22T04:56:17.507Z,61.10
2018-07-22T04:58:46.435Z,61.00
2018-07-22T05:01:15.222Z,61.00
2018-07-22T05:03:44.033Z,60.90
2018-07-22T05:06:13.019Z,61.70
2018-07-22T05:08:42.794Z,60.80
2018-07-22T05:11:11.685Z,60.30
2018-07-22T05:13:40.612Z,59.80
2018-07-22T05:16:09.369Z,59.60
2018-07-22T05:18:38.263Z,59.50
2018-07-22T05:21:07.251Z,59.50
2018-07-22T05:23:36.063Z,59.30
2018-07-22T05:26:05.200Z,59.30
2018-07-22T05:28:33.996Z,59.40
2018-07-22T05:31:02.983Z,59.70
2018-07-22T05:33:31.972Z,60.00
2018-07-22T05:36:00.906Z,60.60
2018-07-22T05:38:29.808Z,60.30
2018-07-22T05:40:58.898Z,59.50
2018-07-22T05:43:27.781Z,59.40
2018-07-22T05:45:56.591Z,59.30
2018-07-22T05:48:25.454Z,59.20
2018-07-22T05:50:54.382Z,59.40
2018-07-22T05:53:23.255Z,59.40
2018-07-22T05:58:20.707Z,57.90
2018-07-22T06:00:49.581Z,57.90
2018-07-22T06:03:18.487Z,57.50
2018-07-22T06:05:47.285Z,57.20
2018-07-22T06:08:16.094Z,57.10
2018-07-22T06:13:13.513Z,56.90
2018-07-22T06:15:42.402Z,57.00
2018-07-22T06:18:11.187Z,56.70
2018-07-22T06:20:40.251Z,56.30
2018-07-22T06:23:09.115Z,55.90
2018-07-22T06:25:38.133Z,55.20
2018-07-22T06:28:07.019Z,54.90
2018-07-22T06:30:35.851Z,54.90
2018-07-22T06:33:04.744Z,54.90
2018-07-22T06:35:33.528Z,54.90
2018-07-22T06:38:02.284Z,54.90
2018-07-22T06:40:31.033Z,55.10
2018-07-22T06:42:59.923Z,55.10
2018-07-22T06:45:28.855Z,55.00
2018-07-22T06:50:26.387Z,54.70
2018-07-22T06:52:55.318Z,54.70
2018-07-22T06:57:52.903Z,55.00
2018-07-22T07:00:21.795Z,55.10
2018-07-22T07:02:50.691Z,55.30
2018-07-22T07:05:19.470Z,55.20
2018-07-22T07:07:48.403Z,55.10
2018-07-22T07:10:17.438Z,55.10
2018-07-22T07:12:46.538Z,56.10
2018-07-22T07:15:15.311Z,55.80
2018-07-22T07:17:44.266Z,56.00
2018-07-22T07:20:13.067Z,56.00
2018-07-22T07:22:41.962Z,56.00
2018-07-22T07:25:10.896Z,55.40
2018-07-22T07:27:39.717Z,54.60
2018-07-22T07:30:08.627Z,53.60
2018-07-22T07:32:37.507Z,53.40
2018-07-22T07:35:06.240Z,53.30
2018-07-22T07:37:35.171Z,53.40
2018-07-22T07:40:04.754Z,53.20
2018-07-22T07:42:33.594Z,52.80
2018-07-22T07:45:03.458Z,52.50
2018-07-22T07:47:32.362Z,51.60
2018-07-22T07:50:01.904Z,51.70
2018-07-22T07:52:30.754Z,52.00
2018-07-22T07:54:59.535Z,52.00
2018-07-22T07:57:28.656Z,51.70
2018-07-22T08:04:55.715Z,50.00
2018-07-22T08:07:24.569Z,50.40
2018-07-22T08:09:53.392Z,50.40
2018-07-22T08:12:22.279Z,49.70
2018-07-22T08:14:51.320Z,49.30
2018-07-22T08:17:20.262Z,47.80
2018-07-22T08:19:49.088Z,48.20
2018-07-22T08:24:46.524Z,48.50
2018-07-22T08:27:15.475Z,48.80
2018-07-22T08:29:44.216Z,49.00
2018-07-22T08:32:13.004Z,49.10
2018-07-22T08:34:41.776Z,48.30
2018-07-22T08:37:10.598Z,48.40
2018-07-22T08:39:39.490Z,47.60
2018-07-22T08:42:08.287Z,46.90
2018-07-22T08:44:37.104Z,46.70
2018-07-22T08:47:06.038Z,45.70
2018-07-22T08:49:34.825Z,45.20
2018-07-22T08:52:03.663Z,45.30
2018-07-22T08:54:32.459Z,45.00
2018-07-22T08:57:01.287Z,45.20
2018-07-22T08:59:30.168Z,44.00
2018-07-22T09:01:58.951Z,44.40
2018-07-22T09:04:27.825Z,44.40
2018-07-22T09:06:56.602Z,43.90
2018-07-22T09:09:25.324Z,44.60
2018-07-22T09:11:54.155Z,46.30
2018-07-22T09:16:51.384Z,43.90
2018-07-22T09:19:20.184Z,43.70
2018-07-22T09:21:48.913Z,49.00
2018-07-22T09:24:17.639Z,45.30
2018-07-22T09:26:46.594Z,43.50
2018-07-22T09:29:15.393Z,43.80
2018-07-22T09:31:44.118Z,43.60
2018-07-22T09:34:12.857Z,43.40
2018-07-22T09:36:41.619Z,43.00
2018-07-22T09:39:11.379Z,43.30
2018-07-22T09:41:40.194Z,43.30
2018-07-22T09:44:08.969Z,43.00
2018-07-22T09:46:37.699Z,42.70
2018-07-22T09:49:06.540Z,42.90
2018-07-22T09:51:35.251Z,43.50
2018-07-22T09:54:04.005Z,43.50
2018-07-22T09:56:32.761Z,43.80
2018-07-22T09:59:01.523Z,43.20
2018-07-22T10:01:30.271Z,43.00
2018-07-22T10:03:59.102Z,43.10
2018-07-22T10:06:27.979Z,42.90
2018-07-22T10:08:56.720Z,42.90
2018-07-22T10:11:25.477Z,42.90
2018-07-22T10:13:54.202Z,42.60
2018-07-22T10:16:22.976Z,42.20
2018-07-22T10:18:51.711Z,42.60
2018-07-22T10:21:21.432Z,42.30
2018-07-22T10:23:50.266Z,41.70
2018-07-22T10:28:47.538Z,41.70
2018-07-22T10:31:16.232Z,41.80
2018-07-22T10:33:45.080Z,42.20
2018-07-22T10:36:13.815Z,42.40
2018-07-22T10:38:42.566Z,42.20
2018-07-22T10:41:11.291Z,42.00
2018-07-22T10:43:40.089Z,41.70
2018-07-22T10:46:08.851Z,42.00
2018-07-22T10:48:37.594Z,42.10
2018-07-22T10:51:06.592Z,42.50
2018-07-22T10:53:35.348Z,42.30
2018-07-22T10:56:04.207Z,42.00
2018-07-22T10:58:32.934Z,41.80
2018-07-22T11:01:01.722Z,42.10
2018-07-22T11:03:30.496Z,42.20
2018-07-22T11:05:59.225Z,42.10
2018-07-22T11:08:27.976Z,41.60
2018-07-22T11:10:56.698Z,41.30
2018-07-22T11:13:25.433Z,41.30
2018-07-22T11:15:54.175Z,41.60
2018-07-22T11:18:22.949Z,41.90
2018-07-22T11:20:51.741Z,41.90
2018-07-22T11:23:20.522Z,42.10
2018-07-22T11:25:49.272Z,42.30
2018-07-22T11:28:18.144Z,41.90
2018-07-22T11:30:46.887Z,41.60
2018-07-22T11:33:15.683Z,41.60
2018-07-22T11:35:44.463Z,41.90
2018-07-22T11:38:13.231Z,42.60
2018-07-22T11:40:42.001Z,41.10
2018-07-22T11:45:39.187Z,41.20
2018-07-22T11:48:07.942Z,42.00
2018-07-22T11:50:36.765Z,42.30
2018-07-22T11:53:05.426Z,41.90
2018-07-22T11:58:02.671Z,42.10
2018-07-22T12:00:31.421Z,41.30
2018-07-22T12:03:00.161Z,40.80
2018-07-22T12:05:28.935Z,41.20
2018-07-22T12:07:57.676Z,40.30
2018-07-22T12:10:26.423Z,40.40
2018-07-22T12:12:55.222Z,40.90
2018-07-22T12:15:23.967Z,40.60
2018-07-22T12:17:52.707Z,41.10
2018-07-22T12:25:18.426Z,41.50
2018-07-22T12:27:47.150Z,41.70
2018-07-22T12:30:15.892Z,42.00
2018-07-22T12:32:44.666Z,42.30
2018-07-22T12:35:13.550Z,42.40
2018-07-22T12:42:39.159Z,42.30
2018-07-22T12:50:04.935Z,42.30
2018-07-22T12:52:33.659Z,42.00
2018-07-22T12:55:02.419Z,42.80
2018-07-22T12:57:31.186Z,43.00
2018-07-22T13:02:28.553Z,42.50
2018-07-22T13:07:25.751Z,42.90
2018-07-22T13:09:54.534Z,42.40
2018-07-22T13:12:23.283Z,42.20
2018-07-22T13:14:52.035Z,42.20
2018-07-22T13:17:20.771Z,42.50
2018-07-22T13:19:49.531Z,42.00
2018-07-22T13:22:18.264Z,42.30
2018-07-22T13:24:47.002Z,42.60
2018-07-22T13:27:15.739Z,42.30
2018-07-22T13:29:44.515Z,41.90
2018-07-22T13:32:13.243Z,42.20
2018-07-22T13:34:42.015Z,42.50
2018-07-22T13:37:10.783Z,42.60
2018-07-22T13:39:39.511Z,42.50
2018-07-22T13:42:08.297Z,42.20
2018-07-22T13:44:37.035Z,42.10
2018-07-22T13:49:34.239Z,42.90
2018-07-22T13:52:03.124Z,42.10
2018-07-22T13:54:31.887Z,41.90
2018-07-22T13:59:29.210Z,42.10
2018-07-22T14:01:57.996Z,41.90
2018-07-22T14:04:26.681Z,41.80
2018-07-22T14:06:55.683Z,41.70
2018-07-22T14:09:24.512Z,42.10
2018-07-22T14:16:50.241Z,40.60
2018-07-22T14:19:19.561Z,40.90
2018-07-22T14:24:16.946Z,40.60
2018-07-22T14:29:14.248Z,40.20
2018-07-22T14:31:43.124Z,40.20
2018-07-22T14:34:11.869Z,39.70
2018-07-22T14:36:40.638Z,39.90
2018-07-22T14:39:11.368Z,40.60
2018-07-22T14:41:40.118Z,40.70
2018-07-22T14:46:37.803Z,40.00
2018-07-22T14:49:06.605Z,40.60
2018-07-22T14:51:35.414Z,41.50
2018-07-22T14:54:05.332Z,41.30
2018-07-22T14:56:34.164Z,41.40
2018-07-22T14:59:02.982Z,41.10
2018-07-22T15:01:31.768Z,41.50
2018-07-22T15:04:00.507Z,41.10
2018-07-22T15:06:29.272Z,40.70
2018-07-22T15:08:58.070Z,41.00
2018-07-22T15:11:26.833Z,41.40
2018-07-22T15:13:55.564Z,41.10
2018-07-22T15:16:24.332Z,41.40
2018-07-22T15:18:53.088Z,41.70
2018-07-22T15:21:21.889Z,42.10
2018-07-22T15:23:50.683Z,42.00
2018-07-22T15:26:19.472Z,42.10
2018-07-22T15:28:48.346Z,41.70
2018-07-22T15:31:17.751Z,41.80
2018-07-22T15:33:46.530Z,41.50
2018-07-22T15:36:15.263Z,41.90
2018-07-22T15:38:44.067Z,42.10
2018-07-22T15:41:12.819Z,41.70
2018-07-22T15:43:41.632Z,41.90
2018-07-22T15:46:10.398Z,41.80
2018-07-22T15:48:39.483Z,41.50
2018-07-22T15:51:08.234Z,41.50
2018-07-22T15:53:37.134Z,42.30
2018-07-22T15:58:34.512Z,42.20
2018-07-22T16:03:31.794Z,41.70
2018-07-22T16:06:00.667Z,41.70
2018-07-22T16:10:57.897Z,41.50
2018-07-22T16:13:26.810Z,42.50
2018-07-22T16:15:56.695Z,41.70
2018-07-22T16:18:25.519Z,41.80
2018-07-22T16:20:54.363Z,41.30
2018-07-22T16:23:23.364Z,41.20
2018-07-22T16:25:52.293Z,41.30
2018-07-22T16:28:21.082Z,41.20
2018-07-22T16:30:49.845Z,41.10
2018-07-22T16:33:18.598Z,41.20
2018-07-22T16:35:47.352Z,41.20
2018-07-22T16:38:16.208Z,41.40
2018-07-22T16:40:44.944Z,41.80
2018-07-22T16:45:42.203Z,42.30
2018-07-22T16:48:11.030Z,42.10
2018-07-22T16:50:39.910Z,42.00
2018-07-22T16:53:08.670Z,42.80
2018-07-22T16:55:37.418Z,42.70
2018-07-22T16:58:06.904Z,43.00
2018-07-22T17:00:35.643Z,43.60
2018-07-22T17:03:04.403Z,43.60
2018-07-22T17:05:33.265Z,44.00
2018-07-22T17:08:02.071Z,44.30
2018-07-22T17:10:31.050Z,44.50
2018-07-22T17:12:59.864Z,44.80
2018-07-22T17:15:28.670Z,45.00
2018-07-22T17:17:57.447Z,45.00
2018-07-22T17:20:26.342Z,44.70
2018-07-22T17:22:55.084Z,44.60
2018-07-22T17:25:23.932Z,44.20
2018-07-22T17:27:52.951Z,44.20
2018-07-22T17:30:21.798Z,43.70
2018-07-22T17:32:50.550Z,43.90
2018-07-22T17:35:19.435Z,44.10
2018-07-22T17:37:49.935Z,43.60
2018-07-22T17:40:18.858Z,43.70
2018-07-22T17:42:47.777Z,44.20
2018-07-22T17:45:16.799Z,44.00
2018-07-22T17:47:45.619Z,44.30
2018-07-22T17:52:43.105Z,44.70
2018-07-22T18:00:17.968Z,44.20
2018-07-22T18:05:17.873Z,45.00
2018-07-22T18:07:46.769Z,44.60
2018-07-22T18:12:44.287Z,44.40
2018-07-22T18:15:13.135Z,44.50
2018-07-22T18:17:42.098Z,44.70
2018-07-22T18:20:11.015Z,45.10
2018-07-22T18:22:39.983Z,45.20
2018-07-22T18:25:08.755Z,45.40
2018-07-22T18:27:37.747Z,45.50
2018-07-22T18:35:03.821Z,45.80
2018-07-22T18:37:32.688Z,46.00
2018-07-22T18:40:01.551Z,46.10
2018-07-22T18:42:30.340Z,46.40
2018-07-22T18:44:59.310Z,46.40
2018-07-22T18:47:28.375Z,46.60
2018-07-22T18:49:57.132Z,46.80
2018-07-22T18:52:26.021Z,46.80
2018-07-22T18:57:23.501Z,47.10
2018-07-22T18:59:52.313Z,47.40
2018-07-22T19:02:21.248Z,47.80
2018-07-22T19:04:50.141Z,48.10
2018-07-22T19:09:47.534Z,49.30
2018-07-22T19:14:44.734Z,49.00
2018-07-22T19:17:13.541Z,49.10
2018-07-22T19:19:42.535Z,49.00
2018-07-22T19:24:39.743Z,49.00
2018-07-22T19:27:10.385Z,49.00
2018-07-22T19:29:39.965Z,49.20
2018-07-22T19:32:09.210Z,49.40
2018-07-22T19:34:38.014Z,49.80
2018-07-22T19:37:06.826Z,51.40
2018-07-22T19:39:35.821Z,52.10
2018-07-22T19:42:05.002Z,52.30
2018-07-22T19:44:33.846Z,52.30
2018-07-22T19:47:02.587Z,53.00
2018-07-22T19:49:31.405Z,53.20
2018-07-22T19:52:00.240Z,53.10
2018-07-22T19:54:29.001Z,53.00
2018-07-22T19:59:26.266Z,53.60
2018-07-22T20:01:55.042Z,53.80
2018-07-22T20:04:23.837Z,54.10
2018-07-22T20:06:52.711Z,54.40
2018-07-22T20:09:21.458Z,54.40
2018-07-22T20:11:50.228Z,54.60
2018-07-22T20:16:47.593Z,54.70
2018-07-22T20:19:16.351Z,54.80
2018-07-22T20:21:45.429Z,55.10
2018-07-22T20:24:14.371Z,55.10
2018-07-22T20:26:43.056Z,55.10
2018-07-22T20:29:11.868Z,55.30
2018-07-22T20:31:40.684Z,55.00
2018-07-22T20:39:08.836Z,55.50
2018-07-22T20:41:38.265Z,55.40
2018-07-22T20:46:35.606Z,55.20
2018-07-22T20:49:04.374Z,55.20
2018-07-22T20:51:33.143Z,55.50
2018-07-22T20:54:01.936Z,55.60
2018-07-22T20:56:30.704Z,55.80
2018-07-22T20:58:59.569Z,55.70
2018-07-22T21:03:56.874Z,55.90
2018-07-22T21:06:25.643Z,56.10
2018-07-22T21:08:54.359Z,56.30
2018-07-22T21:11:23.139Z,56.20
2018-07-22T21:13:51.928Z,56.10
2018-07-22T21:16:20.691Z,56.10
2018-07-22T21:18:49.473Z,56.10
2018-07-22T21:23:46.895Z,56.20
2018-07-22T21:26:15.706Z,56.30
2018-07-22T21:28:44.510Z,56.30
2018-07-22T21:31:13.235Z,56.30
2018-07-22T21:33:42.042Z,56.60
2018-07-22T21:36:10.769Z,56.80
2018-07-22T21:38:39.840Z,56.90
2018-07-22T21:41:08.634Z,56.90
2018-07-22T21:43:37.548Z,57.10
2018-07-22T21:46:06.291Z,57.40
2018-07-22T21:48:35.332Z,57.60
2018-07-22T21:51:04.098Z,57.90
2018-07-22T21:53:32.863Z,58.20
2018-07-22T21:56:01.596Z,58.30
2018-07-22T21:58:30.426Z,58.20
2018-07-22T22:00:59.761Z,58.10
2018-07-22T22:03:28.513Z,58.10
2018-07-22T22:05:57.352Z,58.10
2018-07-22T22:08:26.219Z,58.20
2018-07-22T22:10:54.974Z,58.20
2018-07-22T22:13:23.739Z,58.20
2018-07-22T22:15:52.519Z,58.10
2018-07-22T22:18:21.281Z,57.70
2018-07-22T22:20:51.550Z,58.60
2018-07-22T22:25:48.835Z,58.70
2018-07-22T22:28:17.619Z,59.20
2018-07-22T22:30:46.398Z,59.60
2018-07-22T22:33:15.130Z,60.00
2018-07-22T22:35:43.884Z,59.80
2018-07-22T22:38:12.640Z,60.00
2018-07-22T22:40:41.393Z,59.70
2018-07-22T22:43:10.157Z,59.70
2018-07-22T22:45:38.897Z,59.60
2018-07-22T22:48:07.650Z,60.00
2018-07-22T22:50:36.402Z,60.20
2018-07-22T22:53:05.220Z,60.00
2018-07-22T22:55:33.973Z,60.40
2018-07-22T22:58:14.348Z,60.90
2018-07-22T23:03:11.567Z,61.10
2018-07-22T23:05:40.367Z,61.00
2018-07-22T23:08:09.227Z,61.00
2018-07-22T23:10:37.975Z,61.00
2018-07-22T23:15:35.186Z,60.80
2018-07-22T23:18:03.971Z,60.70
2018-07-22T23:20:32.700Z,60.60
2018-07-22T23:23:01.504Z,61.10
2018-07-22T23:25:30.255Z,61.30
2018-07-22T23:27:59.026Z,61.30
2018-07-22T23:30:27.800Z,61.60
2018-07-22T23:32:56.557Z,61.60
2018-07-22T23:35:26.146Z,61.90
2018-07-22T23:37:54.899Z,61.80
2018-07-22T23:40:23.659Z,62.00
2018-07-22T23:45:20.921Z,62.00
2018-07-22T23:50:18.111Z,62.20
2018-07-22T23:52:46.888Z,62.30
2018-07-22T23:55:15.659Z,62.30
